MDT,Max TemperatureF,Mean TemperatureF,Min TemperatureF,Max Dew PointF,MeanDew PointF,Min DewpointF,Max Humidity, Mean Humidity, Min Humidity, Max Sea Level PressureIn, Mean Sea Level PressureIn, Min Sea Level PressureIn, Max VisibilityMiles, Mean VisibilityMiles, Min VisibilityMiles, Max Wind SpeedMPH, Mean Wind SpeedMPH, Max Gust SpeedMPH,PrecipitationIn, CloudCover, Events, WindDirDegrees
2013-8-1,91,74,57,61,53,39,82,57,16,30.27,30.10,29.99,10,10,6,20,6,28,0.00,0,,105
2013-8-2,93,74,55,61,51,43,82,51,17,30.10,30.02,29.98,10,10,8,23,6,29,0.01,0,Thunderstorm,38
2013-8-3,91,75,59,64,56,54,83,64,28,30.28,30.15,30.08,10,10,4,32,9,44,1.19,1,Thunderstorm,88
2013-8-4,86,70,55,63,57,52,88,64,37,30.22,30.14,30.10,10,9,2,14,7,,0.00,1,,144
2013-8-5,87,72,57,57,52,48,82,54,25,30.12,30.08,30.05,10,10,9,24,7,33,0.00,1,,311
2013-8-6,91,73,55,57,50,39,88,55,16,30.09,30.03,29.99,10,10,7,18,5,29,0.00,0,,70
2013-8-7,77,67,57,55,54,50,82,65,47,30.15,30.11,30.06,10,10,8,20,9,21,0.00,0,,107
2013-8-8,77,65,53,57,53,48,88,66,44,30.21,30.13,30.08,10,10,7,12,5,,0.00,3,Thunderstorm,48
2013-8-9,82,66,51,54,50,45,82,61,28,30.24,30.21,30.17,10,10,8,16,6,29,0.00,0,,163
2013-8-10,87,69,51,54,48,43,82,51,21,30.25,30.19,30.10,10,10,9,21,5,21,0.00,0,,148
2013-8-11,82,70,59,54,49,46,77,48,30,30.23,30.19,30.15,10,10,8,15,6,21,0.00,2,,31
2013-8-12,84,68,53,57,53,46,82,63,37,30.26,30.21,30.14,10,10,9,23,6,31,0.14,1,Thunderstorm,46
2013-8-13,80,66,53,55,52,46,88,61,32,30.28,30.22,30.16,10,9,3,20,6,26,0.14,0,,128
2013-8-14,84,68,51,55,49,45,82,58,26,30.25,30.20,30.09,10,10,9,15,5,20,0.00,2,,332
2013-8-15,86,68,50,55,49,43,82,53,25,30.20,30.15,30.11,10,10,9,9,4,,0.02,0,,80
2013-8-16,89,70,51,57,51,45,82,55,24,30.20,30.17,30.12,10,10,5,12,5,,0.00,0,,85
2013-8-17,96,76,55,61,55,45,88,57,17,30.19,30.11,30.02,10,8,2,12,5,,0.00,1,,88
2013-8-18,91,74,57,61,52,45,88,53,20,30.16,30.10,30.06,10,9,4,24,7,30,0.00,0,,20
2013-8-19,96,74,51,55,48,41,82,45,15,30.15,30.10,30.02,10,10,5,14,5,17,0.00,0,,138
2013-8-20,100,76,53,55,46,34,77,41,11,30.07,30.03,29.97,10,10,5,12,4,,0.00,0,,328
2013-8-21,89,76,64,54,49,45,64,39,22,30.18,30.10,30.04,10,10,5,20,5,29,0.00,1,,19
2013-8-22,84,72,59,61,56,50,94,61,40,30.26,30.20,30.13,10,10,4,13,4,,0.91,2,Thunderstorm,307
2013-8-23,87,72,57,61,55,50,83,56,31,30.21,30.06,29.96,10,10,4,21,6,26,0.00,1,Thunderstorm,61
2013-8-24,87,71,55,57,53,48,82,54,27,30.10,30.06,30.02,10,10,6,18,3,22,0.00,2,,254
2013-8-25,91,75,59,57,54,50,82,53,26,30.17,30.13,30.07,10,10,7,21,4,26,0.00,0,Thunderstorm,292
2013-8-26,93,76,59,57,54,50,77,51,23,30.18,30.14,30.08,10,10,3,15,3,18,0.00,1,,305
2013-8-27,95,78,60,61,55,52,77,48,23,30.18,30.11,30.04,10,10,7,10,5,16,0.00,1,,172
2013-8-28,93,76,60,57,53,48,72,48,21,30.15,30.11,30.06,10,10,6,10,5,,0.00,0,,330
2013-8-29,96,76,57,59,51,45,72,45,17,30.19,30.15,30.12,10,10,7,17,6,24,0.00,1,,309
2013-8-30,93,76,60,57,53,50,73,50,24,30.23,30.16,30.10,10,10,5,20,5,25,0.00,0,,313
2013-8-31,89,74,60,57,53,48,77,49,27,30.16,30.10,30.05,10,10,8,13,6,23,0.00,0,,315